Time;durP1;ratioP1;P1;durP2;ratioP2;P2;SDS_P1;SDS_P2;PMS_P1;PMS_P2;Temp;Humidity;BMP_temperature;BMP_pressure;BME280_temperature;BME280_humidity;BME280_pressure;Samples;Min_cycle;Max_cycle;Signal;HPM_P1;HPM_P2
2023/04/26 00:00:45;;;;;;;;;;;;;;;1.62;93.54;101997.09;4999191;28;20336;-41
2023/04/26 00:03:12;;;;;;;;;;;;;;;1.60;93.52;101996.97;4985077;28;20377;-41
2023/04/26 00:05:37;;;;;;;;;;;;;;;1.58;93.77;101990.91;4998141;28;19995;-43
2023/04/26 00:08:03;;;;;;;;;;;;;;;1.55;93.69;101995.72;4984174;28;19922;-40
2023/04/26 00:10:28;;;;;;;;;;;;;;;1.51;94.04;101991.16;4984634;28;19932;-41
2023/04/26 00:12:53;;;;;;;;;;;;;;;1.48;93.45;101987.50;4989504;28;20459;-40
2023/04/26 00:15:19;;;;;;;;;;;;;;;1.41;93.91;101993.72;4986829;28;19941;-40
2023/04/26 00:17:44;;;;;;;;;;;;;;;1.39;94.16;101992.66;4989550;28;19928;-40
2023/04/26 00:20:11;;;;;;;;;;;;;;;1.40;94.74;101993.59;5004125;28;19952;-40
2023/04/26 00:22:37;;;;;;;;;;;;;;;1.40;95.23;101994.47;4998936;28;19918;-41
2023/04/26 00:25:02;;;;;;;;;;;;;;;1.42;95.37;101989.53;4991106;28;19979;-42
2023/04/26 00:27:27;;;;;;;;;;;;;;;1.41;95.26;101992.81;4989186;28;19969;-40
2023/04/26 00:29:52;;;;;;;;;;;;;;;1.40;95.48;101994.47;4999112;28;20277;-41
2023/04/26 00:32:18;;;;;;;;;;;;;;;1.36;95.15;101989.00;4993013;28;19918;-41
2023/04/26 00:34:43;;;;;;;;;;;;;;;1.32;94.27;101985.31;4986563;28;20459;-41
2023/04/26 00:37:08;;;;;;;;;;;;;;;1.22;94.52;101986.22;4992951;28;20003;-40
2023/04/26 00:39:33;;;;;;;;;;;;;;;1.19;94.54;101987.59;4986157;28;19927;-41
2023/04/26 00:41:59;;;;;;;;;;;;;;;1.14;95.13;101986.34;4986583;28;20021;-41
2023/04/26 00:44:24;;;;;;;;;;;;;;;1.14;96.28;101986.34;4989887;28;20368;-41
2023/04/26 00:46:51;;;;;;;;;;;;;;;1.18;96.52;101988.38;4976493;28;19925;-41
2023/04/26 00:49:17;;;;;;;;;;;;;;;1.22;96.78;101991.28;5000414;28;19949;-40
2023/04/26 00:51:43;;;;;;;;;;;;;;;1.25;96.74;101993.19;4994448;28;20035;-41
2023/04/26 00:54:09;;;;;;;;;;;;;;;1.24;96.80;101986.34;4992906;28;20028;-41
2023/04/26 00:56:35;;;;;;;;;;;;;;;1.22;96.58;101988.75;4986994;28;20040;-41
2023/04/26 00:59:01;;;;;;;;;;;;;;;1.22;97.15;101993.84;5001106;28;20015;-40
2023/04/26 01:01:27;;;;;;;;;;;;;;;1.21;97.77;101984.44;4999767;28;20029;-41
2023/04/26 01:03:52;;;;;;;;;;;;;;;1.19;97.56;101988.50;4989325;28;19924;-40
2023/04/26 01:06:17;;;;;;;;;;;;;;;1.15;96.73;101991.53;4985690;28;19926;-40
2023/04/26 01:08:43;;;;;;;;;;;;;;;1.09;96.75;101991.00;4988032;28;19926;-39
2023/04/26 01:11:09;;;;;;;;;;;;;;;1.02;96.24;101988.72;4987988;28;19918;-41
2023/04/26 01:13:36;;;;;;;;;;;;;;;0.94;96.13;101984.66;4989188;28;19925;-40
2023/04/26 01:16:01;;;;;;;;;;;;;;;0.87;96.47;101992.50;4986019;28;19921;-41
2023/04/26 01:18:26;;;;;;;;;;;;;;;0.85;97.12;101994.91;4986545;28;19922;-41
2023/04/26 01:20:52;;;;;;;;;;;;;;;0.87;97.53;101995.03;4974916;28;19926;-41
2023/04/26 01:23:17;;;;;;;;;;;;;;;0.88;98.03;101992.63;4988470;28;19933;-41
2023/04/26 01:25:42;;;;;;;;;;;;;;;0.91;98.27;101995.44;4990907;28;19917;-40
2023/04/26 01:28:08;;;;;;;;;;;;;;;0.90;97.66;101992.75;4999770;28;19972;-40
2023/04/26 01:30:33;;;;;;;;;;;;;;;0.84;97.33;101993.13;4994890;28;19948;-41
2023/04/26 01:32:58;;;;;;;;;;;;;;;0.76;97.27;101991.59;4987644;28;22006;-41
2023/04/26 01:35:23;;;;;;;;;;;;;;;0.74;97.67;101996.53;4989524;28;20040;-40
2023/04/26 01:37:49;;;;;;;;;;;;;;;0.76;98.21;102000.06;4990308;28;19921;-41
2023/04/26 01:40:14;;;;;;;;;;;;;;;0.76;97.88;101996.66;4995186;28;19918;-41
2023/04/26 01:42:39;;;;;;;;;;;;;;;0.73;97.98;102002.34;4989030;28;20466;-40
2023/04/26 01:45:05;;;;;;;;;;;;;;;0.73;98.45;102001.47;4994519;28;19921;-41
2023/04/26 01:47:30;;;;;;;;;;;;;;;0.72;98.17;101997.13;4997078;28;19930;-39
2023/04/26 01:49:56;;;;;;;;;;;;;;;0.70;98.40;101994.47;4989194;28;19922;-41
2023/04/26 01:52:21;;;;;;;;;;;;;;;0.67;98.40;101999.31;4981945;28;19926;-40
2023/04/26 01:54:47;;;;;;;;;;;;;;;0.67;98.49;101988.28;4982629;28;20024;-40
2023/04/26 01:57:12;;;;;;;;;;;;;;;0.66;98.98;101991.56;4998827;28;19930;-39
2023/04/26 01:59:37;;;;;;;;;;;;;;;0.66;99.64;102001.69;4993681;28;19959;-41
2023/04/26 02:02:02;;;;;;;;;;;;;;;0.66;100.00;101996.63;4988446;28;19930;-41
2023/04/26 02:04:28;;;;;;;;;;;;;;;0.64;100.00;101998.13;4997183;28;19926;-41
2023/04/26 02:06:53;;;;;;;;;;;;;;;0.63;100.00;102002.31;4991176;28;19925;-40
2023/04/26 02:09:18;;;;;;;;;;;;;;;0.60;99.85;102006.22;5000478;28;20020;-41
2023/04/26 02:11:44;;;;;;;;;;;;;;;0.55;99.44;101998.25;4987462;28;19922;-41
2023/04/26 02:14:09;;;;;;;;;;;;;;;0.51;99.44;102001.25;5004872;28;19930;-40
2023/04/26 02:16:34;;;;;;;;;;;;;;;0.49;99.54;102003.66;4986490;28;20395;-40
2023/04/26 02:18:59;;;;;;;;;;;;;;;0.47;99.91;102006.81;4999038;28;20391;-41
2023/04/26 02:21:25;;;;;;;;;;;;;;;0.47;100.00;102001.75;4991426;28;19929;-41
2023/04/26 02:23:51;;;;;;;;;;;;;;;0.43;99.53;101990.50;4992066;28;19940;-41
2023/04/26 02:26:16;;;;;;;;;;;;;;;0.38;99.42;101993.38;4985960;28;19925;-41
2023/04/26 02:28:41;;;;;;;;;;;;;;;0.33;99.49;101998.03;4978988;28;20529;-41
2023/04/26 02:31:07;;;;;;;;;;;;;;;0.29;99.40;101995.09;4991242;28;19929;-42
2023/04/26 02:33:32;;;;;;;;;;;;;;;0.24;98.78;101994.69;4993261;28;19953;-40
2023/04/26 02:35:58;;;;;;;;;;;;;;;0.17;99.07;101995.78;4993267;28;20517;-41
2023/04/26 02:38:25;;;;;;;;;;;;;;;0.17;99.82;101997.44;4994862;28;19926;-41
2023/04/26 02:40:56;;;;;;;;;;;;;;;0.20;100.00;101987.59;4990045;28;20383;-40
2023/04/26 02:43:21;;;;;;;;;;;;;;;0.21;100.00;101985.19;5008056;28;19918;-40
2023/04/26 02:45:47;;;;;;;;;;;;;;;0.18;100.00;101984.94;4997965;28;19921;-41
2023/04/26 02:48:12;;;;;;;;;;;;;;;0.17;100.00;101982.25;5001796;28;19922;-40
2023/04/26 02:50:37;;;;;;;;;;;;;;;0.16;100.00;101977.97;4996539;28;19929;-39
2023/04/26 02:53:03;;;;;;;;;;;;;;;0.17;100.00;101985.66;4991543;28;19926;-41
2023/04/26 02:55:28;;;;;;;;;;;;;;;0.18;100.00;101987.47;4994904;28;19926;-42
2023/04/26 02:57:53;;;;;;;;;;;;;;;0.18;100.00;101977.34;4986198;28;19930;-41
2023/04/26 03:00:19;;;;;;;;;;;;;;;0.19;100.00;101983.31;4985644;28;19926;-40
2023/04/26 03:02:44;;;;;;;;;;;;;;;0.20;100.00;101972.44;4986719;28;19930;-41
2023/04/26 03:05:09;;;;;;;;;;;;;;;0.18;100.00;101976.44;4984878;28;20300;-41
2023/04/26 03:07:35;;;;;;;;;;;;;;;0.12;100.00;101974.28;4995550;28;20500;-40
2023/04/26 03:10:00;;;;;;;;;;;;;;;0.11;100.00;101976.66;4995097;28;19972;-40
2023/04/26 03:12:26;;;;;;;;;;;;;;;0.08;100.00;101973.88;5006291;28;19922;-47
2023/04/26 03:14:51;;;;;;;;;;;;;;;0.04;100.00;101974.34;5005987;28;19930;-50
2023/04/26 03:17:16;;;;;;;;;;;;;;;-0.02;100.00;101972.19;4994657;28;19926;-50
2023/04/26 03:19:42;;;;;;;;;;;;;;;-0.05;100.00;101971.94;4993901;28;19945;-47
2023/04/26 03:22:07;;;;;;;;;;;;;;;-0.07;100.00;101969.25;4994340;28;19922;-49
2023/04/26 03:24:32;;;;;;;;;;;;;;;-0.04;100.00;101973.69;4993697;28;19930;-48
2023/04/26 03:26:58;;;;;;;;;;;;;;;-0.05;100.00;101980.41;4988677;28;19918;-51
2023/04/26 03:29:23;;;;;;;;;;;;;;;-0.11;100.00;101968.84;4998992;28;19944;-48
2023/04/26 03:31:49;;;;;;;;;;;;;;;-0.13;100.00;101973.75;4987449;28;20399;-48
2023/04/26 03:34:14;;;;;;;;;;;;;;;-0.15;100.00;101972.75;4989171;28;19962;-50
2023/04/26 03:36:39;;;;;;;;;;;;;;;-0.19;100.00;101974.84;4991873;28;19947;-51
2023/04/26 03:39:05;;;;;;;;;;;;;;;-0.23;100.00;101973.72;4989335;28;19926;-48
2023/04/26 03:41:32;;;;;;;;;;;;;;;-0.29;100.00;101966.47;5005801;28;20704;-51
2023/04/26 03:43:57;;;;;;;;;;;;;;;-0.30;100.00;101966.34;4992499;28;19941;-48
2023/04/26 03:46:22;;;;;;;;;;;;;;;-0.32;100.00;101966.19;4993969;28;19928;-53
2023/04/26 03:48:48;;;;;;;;;;;;;;;-0.30;100.00;101964.69;4998995;28;19920;-47
2023/04/26 03:51:13;;;;;;;;;;;;;;;-0.27;100.00;101971.66;4991964;28;19930;-46
2023/04/26 03:53:40;;;;;;;;;;;;;;;-0.27;100.00;101974.19;4991800;28;20017;-47
2023/04/26 03:56:06;;;;;;;;;;;;;;;-0.31;100.00;101964.53;4993192;28;19932;-40
2023/04/26 03:58:31;;;;;;;;;;;;;;;-0.32;100.00;101975.41;4988156;28;19930;-40
2023/04/26 04:01:00;;;;;;;;;;;;;;;-0.35;100.00;101968.44;4994200;28;20471;-41
2023/04/26 04:03:25;;;;;;;;;;;;;;;-0.35;100.00;101975.16;4992745;28;19928;-40
2023/04/26 04:05:50;;;;;;;;;;;;;;;-0.37;100.00;101972.47;5008371;28;19921;-41
2023/04/26 04:08:16;;;;;;;;;;;;;;;-0.40;100.00;101968.78;4981389;28;19918;-40
2023/04/26 04:10:41;;;;;;;;;;;;;;;-0.43;100.00;101969.38;4990910;28;19950;-41
2023/04/26 04:13:07;;;;;;;;;;;;;;;-0.42;100.00;101972.84;4971557;28;19998;-41
2023/04/26 04:15:32;;;;;;;;;;;;;;;-0.39;100.00;101963.88;4995482;28;19921;-40
2023/04/26 04:17:57;;;;;;;;;;;;;;;-0.35;100.00;101968.44;4985810;28;19941;-41
2023/04/26 04:20:22;;;;;;;;;;;;;;;-0.37;100.00;101969.06;4988019;28;19934;-41
2023/04/26 04:22:48;;;;;;;;;;;;;;;-0.35;100.00;101972.63;4990740;28;19979;-41
2023/04/26 04:25:13;;;;;;;;;;;;;;;-0.35;100.00;101976.03;4990627;28;19926;-41
2023/04/26 04:27:41;;;;;;;;;;;;;;;-0.34;100.00;101970.22;4991643;28;19924;-40
2023/04/26 04:30:07;;;;;;;;;;;;;;;-0.32;100.00;101970.34;4998052;28;20071;-41
2023/04/26 04:32:33;;;;;;;;;;;;;;;-0.33;100.00;101968.59;4977442;28;20366;-41
2023/04/26 04:34:58;;;;;;;;;;;;;;;-0.31;100.00;101973.00;4992543;28;19924;-41
2023/04/26 04:37:24;;;;;;;;;;;;;;;-0.25;100.00;101976.84;4990345;28;19938;-41
2023/04/26 04:39:50;;;;;;;;;;;;;;;-0.21;100.00;101976.38;4993623;28;19921;-41
2023/04/26 04:42:16;;;;;;;;;;;;;;;-0.18;100.00;101977.53;4990219;28;20526;-41
2023/04/26 04:44:41;;;;;;;;;;;;;;;-0.13;100.00;101978.81;4983885;28;20411;-41
2023/04/26 04:47:07;;;;;;;;;;;;;;;-0.06;100.00;101977.72;4988039;28;19921;-41
2023/04/26 04:49:32;;;;;;;;;;;;;;;0.01;100.00;101989.28;5077101;28;19918;-47
2023/04/26 04:51:57;;;;;;;;;;;;;;;0.08;100.00;101984.00;4992682;28;19928;-47
2023/04/26 04:54:23;;;;;;;;;;;;;;;0.16;100.00;101980.50;4993185;28;20059;-46
2023/04/26 04:56:48;;;;;;;;;;;;;;;0.28;100.00;101985.72;4980023;28;19933;-49
2023/04/26 04:59:13;;;;;;;;;;;;;;;0.41;100.00;101989.44;4989567;28;19926;-41
2023/04/26 05:01:38;;;;;;;;;;;;;;;0.53;100.00;101990.50;4984729;28;20142;-41
2023/04/26 05:04:05;;;;;;;;;;;;;;;0.65;100.00;101992.31;4983569;28;19933;-41
2023/04/26 05:06:33;;;;;;;;;;;;;;;1.00;100.00;101985.19;4992054;28;20399;-42
2023/04/26 05:08:58;;;;;;;;;;;;;;;1.69;100.00;101986.69;4984276;28;19985;-41
2023/04/26 05:11:24;;;;;;;;;;;;;;;2.35;100.00;101981.81;4985798;28;20066;-41
2023/04/26 05:13:49;;;;;;;;;;;;;;;2.93;98.78;101989.78;4986081;28;19955;-41
2023/04/26 05:16:15;;;;;;;;;;;;;;;3.45;96.39;101991.16;4980667;28;19921;-40
2023/04/26 05:18:40;;;;;;;;;;;;;;;3.98;98.56;101985.69;4972860;28;21106;-41
2023/04/26 05:21:05;;;;;;;;;;;;;;;4.51;95.12;101986.97;4981937;28;19968;-41
2023/04/26 05:23:30;;;;;;;;;;;;;;;4.88;93.62;101986.09;4996920;28;19926;-41
2023/04/26 05:25:56;;;;;;;;;;;;;;;5.40;92.50;101993.06;4995911;28;20404;-41
2023/04/26 05:28:21;;;;;;;;;;;;;;;5.96;90.09;101987.41;4992996;28;20016;-41
2023/04/26 05:30:47;;;;;;;;;;;;;;;6.14;87.75;101988.59;4989821;28;20035;-41
2023/04/26 05:33:12;;;;;;;;;;;;;;;6.09;88.58;101979.75;4988087;28;19930;-41
2023/04/26 05:35:38;;;;;;;;;;;;;;;6.04;88.66;101978.56;4986953;28;19918;-41
2023/04/26 05:38:03;;;;;;;;;;;;;;;5.82;88.30;101987.34;4981595;28;20394;-41
2023/04/26 05:40:28;;;;;;;;;;;;;;;5.52;88.61;101992.97;4980939;28;19928;-42
2023/04/26 05:42:54;;;;;;;;;;;;;;;5.30;89.55;101993.22;4995792;28;20429;-42
2023/04/26 05:45:19;;;;;;;;;;;;;;;5.09;89.62;101995.19;4992927;28;19965;-42
2023/04/26 05:47:46;;;;;;;;;;;;;;;4.88;90.14;101993.75;4995360;28;19938;-41
2023/04/26 05:50:11;;;;;;;;;;;;;;;4.58;90.22;102003.56;4977610;28;20387;-42
2023/04/26 05:52:37;;;;;;;;;;;;;;;4.35;90.69;102006.16;4975464;28;19921;-40
2023/04/26 05:55:03;;;;;;;;;;;;;;;4.09;91.33;102005.19;4994769;28;19930;-41
2023/04/26 05:57:28;;;;;;;;;;;;;;;3.93;91.93;102004.84;4985404;28;19930;-42
2023/04/26 05:59:54;;;;;;;;;;;;;;;3.96;93.19;102002.53;4985162;28;20013;-41
2023/04/26 06:02:19;;;;;;;;;;;;;;;4.25;92.72;102000.44;4987957;28;20419;-41
2023/04/26 06:04:45;;;;;;;;;;;;;;;4.63;91.66;102007.34;4985380;28;19990;-41
2023/04/26 06:07:10;;;;;;;;;;;;;;;4.99;91.59;101997.94;4983909;28;19932;-42
2023/04/26 06:09:35;;;;;;;;;;;;;;;5.45;90.26;102001.91;4989766;28;20353;-41
2023/04/26 06:12:01;;;;;;;;;;;;;;;5.64;89.92;101998.88;4984562;28;19933;-41
2023/04/26 06:14:26;;;;;;;;;;;;;;;5.67;90.44;101991.44;4992324;28;20017;-42
2023/04/26 06:16:51;;;;;;;;;;;;;;;5.88;88.28;102000.53;4986100;28;19978;-41
2023/04/26 06:19:17;;;;;;;;;;;;;;;5.93;87.58;101999.97;4986564;28;20601;-42
2023/04/26 06:21:42;;;;;;;;;;;;;;;6.14;88.41;101998.81;4987189;28;19930;-41
2023/04/26 06:24:07;;;;;;;;;;;;;;;6.37;89.37;101997.69;4983583;28;20441;-41
2023/04/26 06:26:32;;;;;;;;;;;;;;;6.45;89.02;102007.59;5003777;28;19923;-41
2023/04/26 06:28:58;;;;;;;;;;;;;;;6.48;88.62;102006.03;4984450;28;20432;-42
2023/04/26 06:31:23;;;;;;;;;;;;;;;6.42;88.69;102004.84;4997396;28;19939;-41
2023/04/26 06:33:48;;;;;;;;;;;;;;;6.47;88.32;102009.38;4985637;28;19922;-42
2023/04/26 06:36:14;;;;;;;;;;;;;;;6.44;87.55;102017.75;5075341;28;19938;-42
2023/04/26 06:38:39;;;;;;;;;;;;;;;6.41;89.36;102010.75;4986767;28;20001;-44
2023/04/26 06:41:04;;;;;;;;;;;;;;;6.44;88.61;102021.19;4998282;28;20402;-40
2023/04/26 06:43:30;;;;;;;;;;;;;;;6.59;88.75;102030.56;4988104;28;19928;-43
2023/04/26 06:45:55;;;;;;;;;;;;;;;6.82;88.23;102030.34;4984311;28;20016;-42
2023/04/26 06:48:20;;;;;;;;;;;;;;;6.95;87.81;102027.75;4983531;28;19930;-42
2023/04/26 06:50:46;;;;;;;;;;;;;;;7.01;88.35;102028.91;4995894;28;19922;-42
2023/04/26 06:53:11;;;;;;;;;;;;;;;7.22;87.72;102031.09;4983589;28;19937;-42
2023/04/26 06:55:36;;;;;;;;;;;;;;;7.39;86.69;102028.66;4980554;28;20299;-49
2023/04/26 06:58:02;;;;;;;;;;;;;;;7.47;84.20;102030.88;4981293;28;19930;-49
2023/04/26 07:00:27;;;;;;;;;;;;;;;7.37;85.23;102015.78;4989965;28;20296;-51
2023/04/26 07:02:52;;;;;;;;;;;;;;;7.23;85.70;102016.63;4992375;28;19952;-48
2023/04/26 07:05:18;;;;;;;;;;;;;;;7.23;86.68;102026.88;4996079;28;20361;-47
2023/04/26 07:07:43;;;;;;;;;;;;;;;7.31;86.07;102029.88;4982229;28;19942;-49
2023/04/26 07:10:09;;;;;;;;;;;;;;;7.41;85.95;102025.41;4990570;28;19931;-51
2023/04/26 07:12:34;;;;;;;;;;;;;;;7.56;84.82;102029.66;4987286;28;19989;-47
2023/04/26 07:15:00;;;;;;;;;;;;;;;7.49;84.93;102021.63;4990140;28;19929;-48
2023/04/26 07:17:25;;;;;;;;;;;;;;;7.42;84.69;102033.97;4987201;28;19936;-50
2023/04/26 07:19:51;;;;;;;;;;;;;;;7.51;84.61;102027.69;4984505;28;20393;-49
2023/04/26 07:22:16;;;;;;;;;;;;;;;7.69;84.69;102024.44;4991532;28;19922;-47
2023/04/26 07:24:41;;;;;;;;;;;;;;;7.82;82.20;102026.91;4996488;28;20580;-48
2023/04/26 07:27:06;;;;;;;;;;;;;;;7.74;81.18;102025.59;4997312;28;19921;-47
2023/04/26 07:29:32;;;;;;;;;;;;;;;7.82;80.90;102026.91;4985618;28;19926;-46
2023/04/26 07:31:57;;;;;;;;;;;;;;;8.07;81.85;102026.66;4985710;28;19937;-47
2023/04/26 07:34:23;;;;;;;;;;;;;;;8.49;80.83;102020.53;4987493;28;20288;-46
2023/04/26 07:36:48;;;;;;;;;;;;;;;8.88;75.87;102017.44;4990011;28;19928;-48
2023/04/26 07:39:14;;;;;;;;;;;;;;;8.87;78.51;102014.00;4991205;28;19926;-47
2023/04/26 07:41:39;;;;;;;;;;;;;;;8.97;78.10;102013.66;4987638;28;19929;-47
2023/04/26 07:44:05;;;;;;;;;;;;;;;9.18;79.22;102019.06;4987241;28;19920;-47
2023/04/26 07:46:31;;;;;;;;;;;;;;;9.36;77.11;102019.13;5000143;28;20314;-47
2023/04/26 07:48:56;;;;;;;;;;;;;;;9.49;73.26;102011.25;4995463;28;19921;-47
2023/04/26 07:51:22;;;;;;;;;;;;;;;9.38;76.48;102018.41;4995231;28;20008;-46
2023/04/26 07:53:48;;;;;;;;;;;;;;;9.26;76.95;102012.63;4989983;28;20357;-47
2023/04/26 07:56:14;;;;;;;;;;;;;;;9.23;76.81;102019.31;4987223;28;20865;-51
2023/04/26 07:58:39;;;;;;;;;;;;;;;9.27;76.30;102022.09;5078515;28;20277;-50
2023/04/26 08:01:04;;;;;;;;;;;;;;;9.31;74.78;102024.03;4990244;28;19933;-48
2023/04/26 08:03:30;;;;;;;;;;;;;;;9.37;73.88;102018.31;5035828;28;19928;-47
2023/04/26 08:05:55;;;;;;;;;;;;;;;9.45;75.30;102031.53;4983528;28;19929;-46
2023/04/26 08:08:21;;;;;;;;;;;;;;;9.54;72.78;102025.22;4996652;28;19922;-50
2023/04/26 08:10:47;;;;;;;;;;;;;;;9.59;74.12;102031.47;4994462;28;19948;-47
2023/04/26 08:13:12;;;;;;;;;;;;;;;9.57;68.90;102038.19;4992576;28;20588;-47
2023/04/26 08:15:37;;;;;;;;;;;;;;;9.39;70.96;102040.69;5024623;28;19916;-49
2023/04/26 08:18:03;;;;;;;;;;;;;;;9.07;67.08;102035.56;4986109;28;19967;-50
2023/04/26 08:20:28;;;;;;;;;;;;;;;8.97;70.54;102041.88;4990176;28;20395;-44
2023/04/26 08:22:56;;;;;;;;;;;;;;;9.00;71.56;102039.50;4989990;28;19921;-43
2023/04/26 08:25:22;;;;;;;;;;;;;;;9.05;70.37;102040.63;5014898;28;19934;-42
2023/04/26 08:27:47;;;;;;;;;;;;;;;9.07;71.23;102033.00;5010434;28;19916;-42
2023/04/26 08:30:12;;;;;;;;;;;;;;;9.20;70.53;102031.97;5006321;28;20243;-43
2023/04/26 08:32:38;;;;;;;;;;;;;;;9.27;66.27;102034.91;4994308;28;20376;-43
2023/04/26 08:35:03;;;;;;;;;;;;;;;9.30;69.42;102027.41;4990336;28;20000;-42
2023/04/26 08:37:29;;;;;;;;;;;;;;;9.35;68.90;102031.09;5017780;28;19957;-43
2023/04/26 08:39:54;;;;;;;;;;;;;;;9.30;67.98;102035.09;4989400;28;20308;-43
2023/04/26 08:42:22;;;;;;;;;;;;;;;9.30;69.19;102034.22;4999924;28;20448;-43
2023/04/26 08:44:47;;;;;;;;;;;;;;;9.28;69.85;102034.16;4997370;28;19914;-43
2023/04/26 08:47:12;;;;;;;;;;;;;;;9.18;66.79;102025.88;4997628;28;20279;-43
2023/04/26 08:49:42;;;;;;;;;;;;;;;9.17;67.92;102031.81;4997210;28;19945;-42
2023/04/26 08:52:09;;;;;;;;;;;;;;;9.13;67.91;102021.38;4995102;28;19925;-44
2023/04/26 08:54:36;;;;;;;;;;;;;;;9.21;67.79;102024.34;5012724;28;19922;-45
2023/04/26 08:57:01;;;;;;;;;;;;;;;9.28;64.84;102026.44;5005952;28;19991;-42
2023/04/26 08:59:28;;;;;;;;;;;;;;;9.31;67.79;102025.72;5000551;28;20001;-43
2023/04/26 09:01:54;;;;;;;;;;;;;;;9.28;64.04;102029.00;4994237;28;20020;-44
2023/04/26 09:04:19;;;;;;;;;;;;;;;9.24;64.33;102023.63;5003102;28;20007;-41
2023/04/26 09:06:45;;;;;;;;;;;;;;;9.21;65.29;102023.47;5037368;28;19916;-42
2023/04/26 09:09:12;;;;;;;;;;;;;;;9.21;66.73;102024.34;4995704;28;20011;-42
2023/04/26 09:11:58;;;;;;;;;;;;;;;9.21;64.48;102024.34;4990407;28;19941;-42
2023/04/26 09:14:23;;;;;;;;;;;;;;;9.08;62.76;102022.81;5011707;28;19921;-43
2023/04/26 09:16:49;;;;;;;;;;;;;;;8.95;64.87;102014.41;5003845;28;19952;-42
2023/04/26 09:19:14;;;;;;;;;;;;;;;8.94;64.98;102017.78;4985658;28;20389;-42
2023/04/26 09:21:44;;;;;;;;;;;;;;;8.91;64.59;102008.22;4991203;28;19913;-43
2023/04/26 09:24:09;;;;;;;;;;;;;;;8.90;64.78;102009.03;4992361;28;19914;-44
2023/04/26 09:26:35;;;;;;;;;;;;;;;8.95;66.04;102010.16;4989334;28;19937;-44
2023/04/26 09:29:13;;;;;;;;;;;;;;;9.10;67.03;102005.84;4993543;28;19924;-43
2023/04/26 09:31:40;;;;;;;;;;;;;;;9.23;62.52;102015.06;5017066;28;19940;-43
2023/04/26 09:34:05;;;;;;;;;;;;;;;9.20;64.03;102011.44;4991846;28;19922;-43
2023/04/26 09:36:31;;;;;;;;;;;;;;;9.24;63.20;102014.25;4991838;28;19924;-43
2023/04/26 09:38:56;;;;;;;;;;;;;;;9.27;64.21;102009.25;4989127;28;20288;-44
2023/04/26 09:41:21;;;;;;;;;;;;;;;9.34;63.13;102019.06;4999064;28;20353;-43
2023/04/26 09:43:49;;;;;;;;;;;;;;;9.32;63.85;102025.78;4992639;28;19925;-42
2023/04/26 09:46:21;;;;;;;;;;;;;;;9.32;62.35;102015.50;5000062;28;19926;-43
2023/04/26 09:48:59;;;;;;;;;;;;;;;9.34;63.74;102020.72;4990343;28;20217;-42
2023/04/26 09:51:24;;;;;;;;;;;;;;;9.42;64.43;102019.44;4996518;28;19957;-44
2023/04/26 09:53:49;;;;;;;;;;;;;;;9.48;60.31;102024.00;4990849;28;20080;-43
2023/04/26 09:56:18;;;;;;;;;;;;;;;9.40;62.00;102016.81;4987411;28;19954;-43
2023/04/26 09:58:47;;;;;;;;;;;;;;;9.35;62.39;102008.00;5016914;28;19921;-41
2023/04/26 10:01:16;;;;;;;;;;;;;;;9.39;61.56;102014.13;4990178;28;19921;-42
2023/04/26 10:03:42;;;;;;;;;;;;;;;9.32;62.09;102012.06;4997138;28;19924;-42
2023/04/26 10:06:07;;;;;;;;;;;;;;;9.31;61.39;102013.75;4985695;28;19922;-43
2023/04/26 10:08:33;;;;;;;;;;;;;;;9.37;61.46;102010.63;4989546;28;19922;-42
2023/04/26 10:11:00;;;;;;;;;;;;;;;9.40;63.46;102011.69;4981244;28;19969;-42
2023/04/26 10:13:26;;;;;;;;;;;;;;;9.39;62.43;102002.19;4999050;28;20022;-42
2023/04/26 10:15:52;;;;;;;;;;;;;;;9.43;63.34;102017.75;5006754;28;20383;-42
2023/04/26 10:18:17;;;;;;;;;;;;;;;9.55;63.76;102019.25;4983810;28;19928;-42
2023/04/26 10:20:44;;;;;;;;;;;;;;;9.65;61.92;102018.94;4993888;28;19926;-41
2023/04/26 10:23:26;;;;;;;;;;;;;;;9.78;61.28;102014.41;4991134;28;19921;-41
2023/04/26 10:25:52;;;;;;;;;;;;;;;9.84;62.75;102014.69;4980460;28;19935;-40
2023/04/26 10:28:17;;;;;;;;;;;;;;;9.84;61.99;102014.69;4988994;28;20315;-42
2023/04/26 10:30:55;;;;;;;;;;;;;;;10.06;62.49;102006.34;4985868;28;19924;-42
2023/04/26 10:33:22;;;;;;;;;;;;;;;10.32;62.27;102005.94;4994558;28;19930;-42
2023/04/26 10:36:06;;;;;;;;;;;;;;;10.45;60.04;102004.81;4986421;28;19929;-42
2023/04/26 10:38:32;;;;;;;;;;;;;;;10.53;60.36;102003.47;4990514;28;20605;-43
2023/04/26 10:41:16;;;;;;;;;;;;;;;10.68;60.75;101991.34;4991439;28;19929;-42
2023/04/26 10:43:41;;;;;;;;;;;;;;;10.97;58.17;101991.75;4980581;28;20020;-43
2023/04/26 10:46:25;;;;;;;;;;;;;;;11.05;55.75;101997.25;4985022;28;20392;-43
2023/04/26 10:48:50;;;;;;;;;;;;;;;10.91;51.73;101989.78;4982092;28;19922;-43
2023/04/26 10:51:16;;;;;;;;;;;;;;;10.86;54.21;101992.94;4982019;28;19930;-42
2023/04/26 10:53:44;;;;;;;;;;;;;;;10.89;57.08;101980.25;4992033;28;20408;-42
2023/04/26 10:56:10;;;;;;;;;;;;;;;10.92;55.44;101989.00;4982832;28;19924;-43
2023/04/26 10:58:39;;;;;;;;;;;;;;;10.85;56.40;101988.63;4983901;28;19922;-44
2023/04/26 11:01:15;;;;;;;;;;;;;;;10.76;59.31;101989.09;4997605;28;19929;-42
2023/04/26 11:03:41;;;;;;;;;;;;;;;10.54;58.18;101992.38;4988801;28;20024;-42
2023/04/26 11:06:08;;;;;;;;;;;;;;;10.32;58.90;101993.09;4988500;28;20004;-42
2023/04/26 11:08:35;;;;;;;;;;;;;;;10.15;57.86;101996.50;4994131;28;19929;-41
2023/04/26 11:11:00;;;;;;;;;;;;;;;9.96;55.08;101994.75;4987166;28;19922;-43
2023/04/26 11:13:26;;;;;;;;;;;;;;;9.83;58.20;101983.00;4985043;28;19921;-42
2023/04/26 11:15:52;;;;;;;;;;;;;;;9.67;57.41;101983.91;4988001;28;19926;-42
2023/04/26 11:18:18;;;;;;;;;;;;;;;9.62;56.47;101982.81;4983649;28;19941;-42
2023/04/26 11:20:43;;;;;;;;;;;;;;;9.65;58.76;101984.66;4992724;28;19966;-41
2023/04/26 11:23:09;;;;;;;;;;;;;;;9.74;57.56;101973.94;4985083;28;20020;-43
2023/04/26 11:25:37;;;;;;;;;;;;;;;9.85;58.81;101983.06;4987250;28;20019;-45
2023/04/26 11:28:04;;;;;;;;;;;;;;;9.83;56.31;101985.56;4986339;28;19926;-42
2023/04/26 11:30:30;;;;;;;;;;;;;;;9.84;56.99;101968.47;4983187;28;19922;-42
2023/04/26 11:32:56;;;;;;;;;;;;;;;10.02;57.38;101965.91;4982738;28;20023;-43
2023/04/26 11:35:22;;;;;;;;;;;;;;;10.15;58.18;101956.25;5001361;28;19991;-45
2023/04/26 11:37:48;;;;;;;;;;;;;;;10.30;57.38;101960.38;4992067;28;19918;-45
2023/04/26 11:40:14;;;;;;;;;;;;;;;10.46;56.51;101956.03;4994783;28;20227;-43
2023/04/26 11:42:41;;;;;;;;;;;;;;;10.62;57.83;101962.75;4991691;28;19921;-44
2023/04/26 11:45:07;;;;;;;;;;;;;;;10.78;56.12;101963.44;4992619;28;19935;-43
2023/04/26 11:47:33;;;;;;;;;;;;;;;10.86;54.33;101969.78;5012935;28;19918;-42
2023/04/26 11:50:00;;;;;;;;;;;;;;;10.96;55.26;101967.69;4989598;28;19979;-43
2023/04/26 11:52:25;;;;;;;;;;;;;;;11.15;55.77;101966.81;4990615;28;19949;-43
2023/04/26 11:54:59;;;;;;;;;;;;;;;11.33;53.22;101969.28;4985551;28;19980;-43
2023/04/26 11:57:29;;;;;;;;;;;;;;;11.30;55.24;101968.28;4988729;28;21610;-42
2023/04/26 12:00:05;;;;;;;;;;;;;;;11.44;53.19;101977.47;4989510;28;20452;-43
2023/04/26 12:02:30;;;;;;;;;;;;;;;11.73;55.28;101969.25;4990579;28;19918;-46
2023/04/26 12:04:58;;;;;;;;;;;;;;;11.79;55.15;101969.50;4999947;28;19933;-43
2023/04/26 12:07:24;;;;;;;;;;;;;;;11.81;54.16;101969.59;4988185;28;19949;-47
2023/04/26 12:09:49;;;;;;;;;;;;;;;11.68;50.82;101973.34;4990863;28;19972;-44
2023/04/26 12:12:15;;;;;;;;;;;;;;;11.71;53.32;101973.50;4996660;28;19976;-43
2023/04/26 12:14:40;;;;;;;;;;;;;;;11.81;53.97;101967.03;4991506;28;19922;-41
2023/04/26 12:17:06;;;;;;;;;;;;;;;11.92;50.31;101968.34;4988043;28;19975;-42
2023/04/26 12:19:32;;;;;;;;;;;;;;;12.01;52.27;101960.09;4988047;28;19918;-44
2023/04/26 12:21:57;;;;;;;;;;;;;;;11.96;51.00;101961.63;4989905;28;19925;-42
2023/04/26 12:24:23;;;;;;;;;;;;;;;11.96;52.32;101965.09;4988998;28;19985;-43
2023/04/26 12:26:48;;;;;;;;;;;;;;;11.95;49.41;101965.00;4989475;28;19914;-45
2023/04/26 12:29:13;;;;;;;;;;;;;;;12.00;51.66;101963.47;4984465;28;19992;-44
2023/04/26 12:31:39;;;;;;;;;;;;;;;11.98;50.97;101957.41;4989708;28;19949;-45
2023/04/26 12:34:04;;;;;;;;;;;;;;;11.78;53.38;101965.19;4998954;28;19985;-48
2023/04/26 12:36:30;;;;;;;;;;;;;;;11.63;52.84;101958.50;5013280;28;19918;-44